Time;durP1;ratioP1;P1;durP2;ratioP2;P2;SDS_P1;SDS_P2;PMS_P1;PMS_P2;Temp;Humidity;BMP_temperature;BMP_pressure;BME280_temperature;BME280_humidity;BME280_pressure;Samples;Min_cycle;Max_cycle;Signal;HPM_P1;HPM_P2
2022/01/19 00:01:40;;;;;;;11.07;5.97;;;0.20;77.20;;;-1.25;64.61;96490.13;5022105;28;20222;-86
2022/01/19 00:04:08;;;;;;;9.45;5.72;;;0.20;77.30;;;-1.21;64.54;96499.34;5037919;28;20192;-86
2022/01/19 00:06:35;;;;;;;8.70;5.57;;;0.20;77.30;;;-1.24;64.44;96492.59;5037524;28;20329;-86
2022/01/19 00:09:03;;;;;;;11.00;5.68;;;0.10;77.30;;;-1.25;64.79;96483.22;5038283;28;20250;-86
2022/01/19 00:11:30;;;;;;;9.23;5.75;;;0.10;77.30;;;-1.25;64.76;96472.09;5037988;28;20220;-86
2022/01/19 00:13:57;;;;;;;11.80;6.18;;;0.10;77.40;;;-1.20;64.76;96482.97;5037463;28;20637;-85
2022/01/19 00:16:25;;;;;;;8.63;5.72;;;0.10;77.60;;;-1.19;65.11;96464.88;5036466;28;20228;-85
2022/01/19 00:18:53;;;;;;;10.23;6.13;;;0.10;77.70;;;-1.10;65.50;96475.59;5038212;28;20273;-86
2022/01/19 00:21:21;;;;;;;11.10;6.40;;;0.10;77.70;;;-1.11;65.45;96471.38;5054218;28;20208;-85
2022/01/19 00:23:48;;;;;;;10.70;7.40;;;0.20;77.80;;;-1.00;65.12;96467.31;5054509;28;20219;-86
2022/01/19 00:26:16;;;;;;;10.48;6.60;;;0.20;78.60;;;-0.95;64.92;96463.66;5037835;28;20232;-86
2022/01/19 00:28:43;;;;;;;12.50;7.10;;;0.20;77.80;;;-0.94;64.97;96462.75;5037833;28;20283;-86
2022/01/19 00:31:10;;;;;;;12.32;7.25;;;0.20;77.80;;;-0.93;64.91;96479.84;5037453;28;20223;-84
2022/01/19 00:33:38;;;;;;;12.02;7.28;;;0.30;77.80;;;-0.87;65.21;96489.84;5053765;28;20192;-85
2022/01/19 00:36:07;;;;;;;12.00;7.20;;;0.30;77.80;;;-0.87;65.38;96484.69;5037918;28;20392;-85
2022/01/19 00:38:35;;;;;;;10.80;6.68;;;0.40;78.70;;;-0.78;65.24;96481.63;5037786;28;20216;-86
2022/01/19 00:41:02;;;;;;;12.63;6.68;;;0.40;77.90;;;-0.74;65.12;96479.72;5034088;28;20220;-86
2022/01/19 00:43:30;;;;;;;9.98;6.93;;;0.40;77.90;;;-0.75;64.82;96478.88;5017976;28;20205;-84
2022/01/19 00:45:58;;;;;;;11.43;6.40;;;0.40;77.90;;;-0.83;64.82;96476.72;5001600;28;20213;-86
2022/01/19 00:48:27;;;;;;;10.23;6.57;;;0.40;78.00;;;-0.85;64.85;96478.53;5001816;28;20227;-85
2022/01/19 00:50:56;;;;;;;10.57;6.55;;;0.40;77.70;;;-0.91;64.36;96465.16;5004029;28;20220;-85
2022/01/19 00:53:25;;;;;;;11.32;6.35;;;0.40;77.50;;;-0.89;64.58;96478.78;5037620;28;20200;-85
2022/01/19 00:55:54;;;;;;;12.27;6.00;;;0.40;77.50;;;-0.93;64.55;96485.00;5054222;28;20227;-85
2022/01/19 00:58:21;;;;;;;15.55;6.78;;;0.40;77.50;;;-0.97;64.59;96474.84;5053754;28;20681;-85
2022/01/19 01:00:49;;;;;;;12.07;7.10;;;0.40;77.70;;;-0.93;64.89;96465.22;5037140;28;20239;-86
2022/01/19 01:03:17;;;;;;;10.70;6.25;;;0.40;77.80;;;-0.93;65.18;96464.41;5054105;28;20192;-85
2022/01/19 01:05:45;;;;;;;9.55;6.40;;;0.30;77.80;;;-0.87;65.25;96466.66;5037657;28;20639;-86
2022/01/19 01:08:14;;;;;;;10.95;6.30;;;0.40;77.90;;;-0.93;64.95;96456.69;5020746;28;20250;-85
2022/01/19 01:10:43;;;;;;;10.88;6.22;;;0.40;77.90;;;-0.89;64.85;96459.00;5037483;28;20251;-85
2022/01/19 01:13:24;;;;;;;12.75;6.45;;;0.40;77.90;;;-0.81;65.12;96464.59;5035685;28;20567;-85
2022/01/19 01:16:16;;;;;;;10.27;6.38;;;0.40;77.90;;;-0.78;65.11;96452.44;5053151;28;20747;-85
2022/01/19 01:18:44;;;;;;;13.23;6.43;;;0.50;78.00;;;-0.77;65.65;96446.38;5039095;28;20212;-86
2022/01/19 01:21:11;;;;;;;9.85;6.13;;;0.40;77.90;;;-0.67;65.19;96450.13;5019454;28;20222;-86
2022/01/19 01:23:39;;;;;;;10.30;6.00;;;0.40;77.90;;;-0.58;65.57;96448.78;5032799;28;20229;-86
2022/01/19 01:26:09;;;;;;;11.73;6.80;;;0.50;79.00;;;-0.51;65.74;96444.94;5032306;28;20231;-85
2022/01/19 01:28:37;;;;;;;10.18;6.00;;;0.50;78.40;;;-0.38;65.34;96433.03;5029407;28;20204;-86
2022/01/19 01:31:07;;;;;;;11.95;5.80;;;0.60;78.60;;;-0.23;65.51;96421.03;5033423;28;20228;-86
2022/01/19 01:33:36;;;;;;;13.88;6.72;;;0.70;78.80;;;-0.10;65.43;96415.16;5036287;28;20200;-86
2022/01/19 01:36:05;;;;;;;10.70;7.22;;;0.70;78.80;;;-0.10;65.52;96392.75;5053210;28;20216;-85
2022/01/19 01:38:34;;;;;;;10.43;6.32;;;0.90;79.70;;;0.07;65.13;96398.69;5052095;28;20216;-85
2022/01/19 01:41:13;;;;;;;10.90;6.78;;;0.90;78.80;;;0.09;65.31;96381.38;5037537;28;20207;-86
2022/01/19 01:44:04;;;;;;;11.05;6.97;;;1.00;78.70;;;0.09;65.04;96379.63;5040238;28;20278;-85
2022/01/19 01:46:42;;;;;;;8.82;6.13;;;1.00;78.50;;;0.10;64.57;96370.16;5035856;28;20259;-85
2022/01/19 01:49:18;;;;;;;10.00;6.38;;;1.10;78.30;;;0.12;64.82;96376.03;5053871;28;20207;-86
2022/01/19 01:54:33;;;;;;;8.30;5.53;;;1.10;78.10;;;0.03;64.72;96376.59;5055376;28;20203;-86
2022/01/19 01:57:00;;;;;;;9.07;5.72;;;1.20;78.00;;;0.03;64.67;96371.44;5035520;28;20200;-86
2022/01/19 01:59:32;;;;;;;9.32;5.95;;;1.20;77.90;;;0.02;64.75;96367.19;5067947;28;20227;-86
2022/01/19 02:02:25;;;;;;;10.40;5.65;;;1.10;77.90;;;-0.04;64.79;96361.47;5006955;28;20213;-85
2022/01/19 02:04:53;;;;;;;9.60;5.60;;;1.10;77.80;;;-0.06;64.62;96363.31;5016269;28;20215;-86
2022/01/19 02:07:40;;;;;;;9.63;6.07;;;1.10;77.80;;;-0.09;64.87;96353.16;5040801;28;20192;-86
2022/01/19 02:10:28;;;;;;;8.30;5.63;;;1.10;77.80;;;-0.14;64.93;96342.28;5048696;28;20228;-85
2022/01/19 02:21:57;;;;;;;8.45;5.00;;;1.00;77.60;;;-0.34;64.42;96292.72;5055246;28;20215;-86
2022/01/19 02:24:30;;;;;;;8.23;5.18;;;1.00;77.50;;;-0.40;64.42;96303.41;5055158;28;20681;-86
2022/01/19 02:42:52;;;;;;;8.80;6.00;;;0.70;77.70;;;-0.52;65.05;96294.63;5021860;28;20209;-87
2022/01/19 02:50:35;;;;;;;9.68;6.22;;;0.70;78.00;;;-0.40;65.28;96290.50;5038883;28;20625;-86
2022/01/19 02:53:04;;;;;;;13.10;7.32;;;0.70;78.10;;;-0.36;65.32;96293.75;5019092;28;20200;-86
2022/01/19 02:55:33;;;;;;;10.02;6.53;;;0.70;78.10;;;-0.34;65.15;96274.69;5037647;28;20223;-86
2022/01/19 02:58:01;;;;;;;10.13;6.30;;;0.80;78.20;;;-0.22;64.93;96280.03;5039809;28;20287;-86
2022/01/19 03:08:50;;;;;;;9.48;6.05;;;0.90;78.20;;;-0.05;65.25;96251.50;5058771;28;20199;-86
2022/01/19 03:11:22;;;;;;;10.20;6.10;;;1.00;78.30;;;0.05;64.79;96261.22;5056352;28;20267;-86
2022/01/19 03:13:50;;;;;;;11.38;6.75;;;1.00;78.30;;;0.11;65.01;96255.69;5047946;28;20718;-86
2022/01/19 03:16:19;;;;;;;11.75;7.15;;;1.10;78.30;;;0.15;65.28;96247.69;5039290;28;20212;-86
2022/01/19 03:18:48;;;;;;;11.63;7.15;;;1.10;78.40;;;0.20;64.89;96247.41;5039203;28;20752;-85
2022/01/19 03:21:17;;;;;;;11.38;6.78;;;1.20;78.40;;;0.23;65.04;96243.81;5039278;28;20566;-86
2022/01/19 03:23:46;;;;;;;11.43;6.20;;;1.20;78.40;;;0.24;65.10;96233.38;5039166;28;20711;-86
2022/01/19 03:26:13;;;;;;;11.15;6.40;;;1.20;78.40;;;0.22;64.63;96216.34;5055512;28;20396;-86
2022/01/19 03:29:10;;;;;;;9.40;6.50;;;1.30;78.50;;;0.27;65.03;96215.13;5051219;28;20204;-86
2022/01/19 03:31:38;;;;;;;10.48;6.07;;;1.30;78.40;;;0.34;65.15;96227.66;5022167;28;20223;-85
2022/01/19 03:34:06;;;;;;;8.63;5.72;;;1.30;78.40;;;0.37;64.88;96219.72;5034035;28;20278;-86
2022/01/19 03:36:35;;;;;;;9.68;5.95;;;1.40;78.40;;;0.34;64.93;96212.97;5035402;28;20220;-87
2022/01/19 03:39:03;;;;;;;9.43;5.60;;;1.40;78.40;;;0.42;64.88;96218.50;5002795;28;20306;-87
2022/01/19 03:41:31;;;;;;;9.02;5.70;;;1.40;78.30;;;0.43;64.77;96209.84;5002246;28;20229;-86
2022/01/19 03:43:58;;;;;;;8.95;6.15;;;1.50;78.30;;;0.49;64.92;96211.22;5020188;28;20201;-87
2022/01/19 03:46:33;;;;;;;8.32;5.68;;;1.50;78.30;;;0.46;64.88;96201.91;5038402;28;20383;-86
2022/01/19 03:49:13;;;;;;;8.68;6.05;;;1.50;78.30;;;0.47;64.74;96203.53;5056017;28;20278;-86
2022/01/19 03:51:41;;;;;;;10.30;6.00;;;1.50;78.20;;;0.51;64.88;96195.63;5040272;28;20219;-86
2022/01/19 03:54:08;;;;;;;10.82;6.70;;;1.50;78.20;;;0.53;64.62;96194.59;5034487;28;20227;-86
2022/01/19 03:56:35;;;;;;;10.32;5.80;;;1.50;78.20;;;0.55;64.89;96200.50;5018406;28;20269;-87
2022/01/19 03:59:03;;;;;;;10.80;6.10;;;1.60;78.20;;;0.55;64.61;96202.22;5018512;28;20220;-86
2022/01/19 04:01:31;;;;;;;8.82;6.35;;;1.60;78.30;;;0.52;64.59;96189.53;5023431;28;20212;-87
2022/01/19 04:04:24;;;;;;;11.75;6.50;;;1.60;78.20;;;0.53;64.71;96198.94;5038253;28;20200;-87
2022/01/19 04:06:57;;;;;;;11.13;6.97;;;1.60;78.10;;;0.55;64.79;96194.50;5041640;28;20302;-86
2022/01/19 04:09:25;;;;;;;10.18;6.63;;;1.60;78.10;;;0.56;65.08;96189.25;5038314;28;20250;-87
2022/01/19 04:11:53;;;;;;;9.30;6.75;;;1.60;78.10;;;0.58;64.73;96189.97;5053894;28;20212;-87
2022/01/19 04:14:22;;;;;;;8.50;6.00;;;1.60;78.00;;;0.60;64.97;96188.13;5038027;28;20657;-86
2022/01/19 04:17:14;;;;;;;11.70;6.10;;;1.60;78.10;;;0.55;64.85;96168.66;5038182;28;20228;-86
2022/01/19 04:19:44;;;;;;;8.10;5.47;;;1.60;78.10;;;0.64;64.87;96175.84;5037751;28;20227;-86
2022/01/19 04:22:20;;;;;;;7.43;5.63;;;1.70;78.20;;;0.64;64.88;96173.25;5051917;28;20662;-86
2022/01/19 04:24:49;;;;;;;9.10;5.93;;;1.70;78.20;;;0.72;64.97;96178.75;5050733;28;20284;-86
2022/01/19 04:30:04;;;;;;;8.25;5.70;;;1.70;78.30;;;0.79;64.76;96174.84;5050435;28;20222;-86
2022/01/19 04:33:02;;;;;;;8.00;5.10;;;1.80;78.40;;;0.83;64.82;96172.91;5036026;28;20201;-86
2022/01/19 04:35:47;;;;;;;9.90;5.43;;;1.90;78.40;;;0.86;64.82;96166.69;5033655;28;20213;-86
2022/01/19 05:01:33;;;;;;;8.60;4.75;;;1.90;78.20;;;0.91;64.70;96139.63;5056653;28;20200;-86
2022/01/19 05:03:49;;;;;;;7.53;5.00;;;2.00;78.20;;;0.84;64.79;96109.94;5018087;28;20213;-85
2022/01/19 05:06:41;;;;;;;7.80;4.80;;;2.00;78.10;;;0.84;64.50;96111.72;5025000;28;20307;-88
2022/01/19 05:14:45;;;;;;;8.77;5.25;;;1.90;77.90;;;0.70;64.35;96103.13;5048667;28;20193;-84
2022/01/19 05:17:12;;;;;;;9.35;5.45;;;1.90;77.80;;;0.70;64.54;96102.31;5016732;28;20320;-84
2022/01/19 05:19:40;;;;;;;8.27;5.28;;;1.90;77.70;;;0.63;64.52;96104.47;5014769;28;20708;-86
2022/01/19 05:22:08;;;;;;;7.63;5.50;;;1.80;77.70;;;0.56;64.36;96104.06;5050429;28;20216;-85
2022/01/19 05:24:56;;;;;;;7.80;5.70;;;1.80;77.70;;;0.53;64.65;96103.44;5039129;28;20600;-85
2022/01/19 05:27:30;;;;;;;9.57;5.38;;;1.80;77.80;;;0.50;64.54;96096.72;5053309;28;20242;-85
2022/01/19 05:29:58;;;;;;;6.60;5.32;;;1.70;77.80;;;0.44;64.70;96082.44;5036203;28;20196;-86
2022/01/19 05:32:26;;;;;;;8.88;5.43;;;1.70;77.80;;;0.48;65.03;96078.72;5036385;28;20220;-85
2022/01/19 05:34:53;;;;;;;9.18;6.00;;;1.70;77.90;;;0.30;64.77;96056.69;5036546;28;20549;-85
2022/01/19 05:37:39;;;;;;;12.70;6.18;;;1.70;77.80;;;0.45;64.52;96081.53;5052575;28;20226;-85
2022/01/19 05:40:27;;;;;;;10.70;6.00;;;1.70;77.80;;;0.40;64.31;96080.97;5026191;28;20232;-85
2022/01/19 05:42:56;;;;;;;8.57;6.00;;;1.60;77.60;;;0.17;64.42;96046.34;5000023;28;20223;-85
2022/01/19 05:45:24;;;;;;;9.25;5.90;;;1.60;77.60;;;0.25;64.30;96066.50;5020166;28;20200;-84
2022/01/19 05:47:52;;;;;;;9.32;6.20;;;1.50;77.50;;;0.13;64.53;96063.78;5052792;28;20223;-85
2022/01/19 05:50:19;;;;;;;8.43;6.40;;;1.50;77.40;;;0.15;64.12;96076.59;5036251;28;20200;-85
2022/01/19 05:53:02;;;;;;;8.60;6.13;;;1.50;77.40;;;0.10;64.28;96083.81;5037875;28;20227;-85
2022/01/19 05:55:30;;;;;;;8.02;5.75;;;1.40;77.30;;;0.01;64.17;96068.91;5035647;28;20684;-85
2022/01/19 05:57:57;;;;;;;10.70;6.00;;;1.30;77.20;;;-0.02;64.31;96083.63;5035820;28;20600;-85
2022/01/19 06:00:25;;;;;;;9.30;5.70;;;1.30;77.20;;;-0.12;63.97;96086.91;5035780;28;20223;-86
2022/01/19 06:02:52;;;;;;;9.80;6.03;;;1.30;77.10;;;-0.20;64.34;96083.03;5035818;28;20219;-85
2022/01/19 06:05:52;;;;;;;8.65;5.70;;;1.20;77.00;;;-0.34;63.94;96088.25;5019263;28;20661;-85
2022/01/19 06:08:42;;;;;;;12.05;5.80;;;1.10;76.90;;;-0.56;63.93;96068.97;5038267;28;20301;-85
2022/01/19 06:11:13;;;;;;;10.75;5.53;;;1.00;76.80;;;-0.71;64.02;96060.44;5021592;28;20200;-84
2022/01/19 06:13:44;;;;;;;9.18;5.57;;;0.90;76.70;;;-0.69;64.13;96080.94;5015429;28;20240;-85
2022/01/19 06:16:11;;;;;;;8.10;6.18;;;0.80;76.70;;;-0.86;63.97;96067.31;5024959;28;20601;-85
2022/01/19 06:18:42;;;;;;;7.30;5.00;;;0.70;76.70;;;-0.89;64.11;96069.25;5019987;28;20220;-85
2022/01/19 06:21:13;;;;;;;7.05;5.30;;;0.60;76.70;;;-0.94;64.21;96071.28;5036482;28;20208;-84
2022/01/19 06:23:44;;;;;;;7.47;5.60;;;0.60;76.70;;;-1.11;64.07;96075.72;5068148;28;20228;-85
2022/01/19 06:26:13;;;;;;;8.35;5.65;;;0.50;76.80;;;-1.20;64.38;96061.59;5036657;28;20199;-85
2022/01/19 06:28:41;;;;;;;8.48;5.68;;;0.40;76.90;;;-1.23;64.55;96053.25;5052084;28;20362;-85
2022/01/19 06:31:09;;;;;;;9.75;5.47;;;0.30;76.90;;;-1.19;64.27;96063.28;5067947;28;20199;-84
2022/01/19 06:33:37;;;;;;;8.45;5.95;;;0.30;76.90;;;-1.26;64.48;96056.00;5031509;28;20588;-84
2022/01/19 06:36:08;;;;;;;9.15;5.82;;;0.20;76.90;;;-1.29;64.32;96068.13;5000369;28;20193;-86
2022/01/19 06:38:46;;;;;;;6.85;5.07;;;0.20;76.90;;;-1.45;64.25;96044.22;5017338;28;20705;-85
2022/01/19 06:41:35;;;;;;;9.82;5.90;;;0.10;76.90;;;-1.50;64.75;96039.34;5010367;28;20281;-84
2022/01/19 06:44:03;;;;;;;9.65;6.40;;;0.10;77.00;;;-1.56;64.76;96037.13;5046307;28;20314;-84
2022/01/19 06:46:31;;;;;;;7.82;5.85;;;0.00;77.10;;;-1.45;64.53;96063.06;5035332;28;20196;-85
2022/01/19 06:48:59;;;;;;;8.98;5.93;;;0.00;77.30;;;-1.51;64.58;96044.59;5003403;28;20221;-85
2022/01/19 06:51:26;;;;;;;10.30;6.45;;;-0.10;77.20;;;-1.49;64.57;96058.16;5041177;28;20196;-84
2022/01/19 06:53:58;;;;;;;12.50;6.80;;;-0.10;77.30;;;-1.50;64.53;96053.94;5035834;28;20227;-85
2022/01/19 06:56:37;;;;;;;11.80;7.47;;;-0.10;77.30;;;-1.64;64.85;96034.16;5053084;28;20215;-85
2022/01/19 06:59:24;;;;;;;10.93;7.00;;;-0.20;77.30;;;-1.56;64.82;96047.41;5051687;28;20644;-85
2022/01/19 07:02:03;;;;;;;11.55;7.75;;;-0.20;77.40;;;-1.57;64.65;96048.34;5037930;28;20216;-85
2022/01/19 07:04:49;;;;;;;14.07;8.35;;;-0.20;77.50;;;-1.54;64.75;96048.13;5061110;28;20187;-85
2022/01/19 07:07:52;;;;;;;12.90;8.23;;;-0.20;77.50;;;-1.53;64.70;96047.22;5026980;28;20233;-84
2022/01/19 07:10:19;;;;;;;12.60;8.38;;;-0.20;77.50;;;-1.64;64.93;96026.44;5064135;28;20220;-84
2022/01/19 07:12:46;;;;;;;13.48;8.77;;;-0.30;77.50;;;-1.56;64.97;96023.41;5066874;28;20364;-85
2022/01/19 07:15:14;;;;;;;14.38;8.88;;;-0.20;77.60;;;-1.42;65.19;96032.94;5050833;28;20215;-86
2022/01/19 07:17:41;;;;;;;18.48;9.32;;;-0.20;77.80;;;-1.38;65.31;96029.25;5048288;28;20223;-86
2022/01/19 07:20:10;;;;;;;16.02;9.07;;;-0.20;78.00;;;-1.29;65.30;96034.66;5011361;28;20228;-86
2022/01/19 07:22:38;;;;;;;21.45;10.90;;;-0.20;78.10;;;-1.25;64.99;96027.59;5016494;28;20237;-85
2022/01/19 07:25:08;;;;;;;33.08;13.90;;;-0.10;78.20;;;-1.16;64.99;96026.22;5052691;28;20212;-86
2022/01/19 07:27:35;;;;;;;35.40;15.18;;;-0.10;78.20;;;-1.12;64.87;96030.28;5052969;28;20220;-85
2022/01/19 07:30:05;;;;;;;168.18;47.60;;;0.00;78.30;;;-1.06;65.38;96023.91;5014375;28;20299;-86
2022/01/19 07:32:35;;;;;;;128.52;40.33;;;0.00;78.40;;;-1.01;65.00;96024.50;5038255;28;20235;-86
2022/01/19 07:35:06;;;;;;;106.78;36.22;;;0.00;78.40;;;-1.07;64.87;96010.22;5053972;28;20204;-86
2022/01/19 07:37:33;;;;;;;68.53;30.10;;;0.10;78.40;;;-1.08;65.07;95989.72;5037851;28;20231;-85
2022/01/19 07:40:01;;;;;;;55.33;25.42;;;0.10;78.40;;;-0.90;64.89;96014.34;5054892;28;20232;-86
2022/01/19 07:42:29;;;;;;;47.00;22.15;;;0.10;78.40;;;-0.95;64.91;95995.78;5038860;28;20246;-87
2022/01/19 07:45:35;;;;;;;53.88;24.70;;;0.20;78.40;;;-0.81;65.00;96011.22;5055552;28;20634;-86
2022/01/19 07:48:20;;;;;;;41.67;26.35;;;0.20;78.40;;;-0.91;65.08;95986.94;5040777;28;20436;-85
2022/01/19 07:51:14;;;;;;;32.80;21.48;;;0.30;78.40;;;-0.85;65.11;95991.72;5047237;28;20685;-86
2022/01/19 07:53:45;;;;;;;33.85;20.85;;;0.30;78.40;;;-0.92;64.90;95971.59;5044892;28;20208;-87
2022/01/19 07:56:29;;;;;;;30.77;18.27;;;0.30;78.30;;;-0.73;65.12;96000.44;5043107;28;20200;-86
2022/01/19 07:59:11;;;;;;;25.77;14.98;;;0.40;78.30;;;-0.70;64.96;96002.00;5053974;28;20563;-87
2022/01/19 08:01:48;;;;;;;21.52;12.98;;;0.40;78.30;;;-0.65;65.25;95993.06;5027473;28;20200;-86
2022/01/19 08:04:34;;;;;;;21.42;12.25;;;0.40;78.30;;;-0.65;64.87;95992.22;5054265;28;20591;-85
2022/01/19 08:07:01;;;;;;;20.92;11.13;;;0.40;78.40;;;-0.58;65.13;95990.09;5054521;28;20231;-85
2022/01/19 08:09:31;;;;;;;16.85;10.82;;;0.40;78.50;;;-0.52;65.09;95987.13;5054709;28;20196;-86
2022/01/19 08:11:58;;;;;;;18.27;9.85;;;0.50;78.50;;;-0.43;65.24;95988.28;5049633;28;20205;-85
2022/01/19 08:14:29;;;;;;;13.43;9.15;;;0.50;79.40;;;-0.50;65.15;95968.06;5007013;28;20193;-85
2022/01/19 08:16:57;;;;;;;13.63;8.63;;;0.50;78.70;;;-0.40;65.10;95968.31;5053362;28;20608;-83
2022/01/19 08:19:30;;;;;;;12.45;8.65;;;0.60;78.80;;;-0.25;64.92;95984.53;5037843;28;20295;-86
2022/01/19 08:21:58;;;;;;;11.80;8.65;;;0.70;78.90;;;-0.16;65.10;95977.97;5036918;28;20200;-85
2022/01/19 08:24:25;;;;;;;14.85;9.43;;;0.70;78.90;;;-0.12;65.05;95963.97;5070551;28;20650;-85
2022/01/19 08:26:55;;;;;;;13.48;9.23;;;0.80;79.00;;;0.01;65.04;95965.72;5036124;28;20207;-84
2022/01/19 08:29:32;;;;;;;14.23;8.90;;;0.80;79.00;;;0.08;65.08;95954.09;5068936;28;20311;-85
2022/01/19 08:32:05;;;;;;;12.52;8.55;;;0.90;79.10;;;0.18;65.10;95956.88;5036086;28;20588;-84
2022/01/19 08:35:09;;;;;;;14.15;8.73;;;1.00;79.10;;;0.27;65.16;95951.09;5064253;28;20204;-85
2022/01/19 08:38:08;;;;;;;14.02;8.50;;;1.10;79.20;;;0.36;65.19;95941.94;5038874;28;20224;-85
2022/01/19 08:40:49;;;;;;;12.18;8.07;;;1.10;79.10;;;0.44;65.31;95939.66;5067279;28;20319;-86
2022/01/19 08:43:21;;;;;;;10.85;7.47;;;1.20;79.10;;;0.50;65.45;95933.25;5054526;28;20227;-84
2022/01/19 08:45:49;;;;;;;13.27;7.43;;;1.30;79.20;;;0.52;65.20;95921.06;5064127;28;20283;-86
2022/01/19 08:48:19;;;;;;;11.35;7.43;;;1.30;79.20;;;0.72;64.78;95937.75;5054074;28;20231;-85
2022/01/19 08:50:50;;;;;;;11.43;8.20;;;1.40;79.30;;;0.79;65.48;95923.50;5053535;28;20196;-86
2022/01/19 08:53:35;;;;;;;9.65;6.75;;;1.50;79.30;;;0.89;65.35;95921.09;5039848;28;20693;-86
2022/01/19 08:56:16;;;;;;;10.07;6.95;;;1.60;80.20;;;1.01;65.26;95911.69;5032454;28;20188;-85
2022/01/19 08:58:43;;;;;;;12.27;7.40;;;1.70;79.40;;;1.10;65.22;95911.03;5016722;28;20266;-85
2022/01/19 09:01:10;;;;;;;10.98;7.78;;;1.80;79.50;;;1.20;65.39;95908.63;5000371;28;20255;-85
2022/01/19 09:03:38;;;;;;;14.15;7.28;;;1.80;79.40;;;1.28;65.20;95903.72;5000803;28;20334;-85
2022/01/19 09:06:05;;;;;;;16.10;7.07;;;1.90;79.40;;;1.33;65.16;95898.22;5047099;28;20204;-85
2022/01/19 09:08:34;;;;;;;11.82;7.68;;;2.00;79.40;;;1.28;64.95;95872.72;5016665;28;20320;-85
2022/01/19 09:11:03;;;;;;;10.48;7.60;;;2.10;79.40;;;1.52;65.09;95885.63;5017018;28;20201;-86
2022/01/19 09:13:30;;;;;;;8.60;6.32;;;2.20;79.40;;;1.58;65.19;95887.75;5016627;28;20240;-85
2022/01/19 09:15:57;;;;;;;9.82;7.53;;;2.30;79.30;;;1.64;64.91;95885.69;5009361;28;20212;-86
2022/01/19 09:18:25;;;;;;;10.13;7.15;;;2.30;79.20;;;1.71;64.98;95876.50;5033500;28;20244;-85
2022/01/19 09:20:52;;;;;;;10.82;7.53;;;2.40;79.20;;;1.74;64.96;95876.28;5033030;28;20290;-86
2022/01/19 09:23:20;;;;;;;11.90;7.20;;;2.50;79.20;;;1.85;64.98;95878.09;5038653;28;20220;-85
2022/01/19 09:25:47;;;;;;;12.75;7.38;;;2.50;79.20;;;1.91;64.92;95872.47;5035769;28;20287;-86
2022/01/19 09:28:14;;;;;;;10.95;7.32;;;2.60;79.30;;;1.96;64.69;95862.59;5019517;28;20224;-86
2022/01/19 09:30:41;;;;;;;9.50;7.20;;;2.70;79.40;;;2.06;64.64;95868.72;5032547;28;20189;-84
2022/01/19 09:33:19;;;;;;;8.60;6.57;;;2.70;79.40;;;2.01;64.80;95838.97;5032755;28;20270;-85
2022/01/19 09:38:29;;;;;;;10.32;7.25;;;2.80;79.20;;;2.15;64.64;95849.09;5042331;28;20638;-85
2022/01/19 09:40:57;;;;;;;11.98;7.85;;;2.90;79.20;;;2.14;64.78;95838.88;5033307;28;20212;-85
2022/01/19 09:43:25;;;;;;;11.55;7.93;;;3.00;79.10;;;2.34;64.62;95856.25;5052767;28;20211;-85
2022/01/19 09:45:57;;;;;;;9.88;7.15;;;3.00;79.00;;;2.35;64.57;95842.38;5052010;28;20195;-86
2022/01/19 09:48:26;;;;;;;11.20;7.93;;;3.10;79.00;;;2.39;64.33;95843.81;5038771;28;20227;-86
2022/01/19 09:50:56;;;;;;;12.93;7.82;;;3.10;78.90;;;2.44;64.39;95832.25;5036067;28;20204;-85
2022/01/19 09:53:24;;;;;;;10.60;8.02;;;3.20;78.90;;;2.48;64.47;95831.06;5052489;28;20223;-86
2022/01/19 09:55:51;;;;;;;9.85;7.50;;;3.20;78.90;;;2.49;64.21;95819.78;5014070;28;20208;-85
2022/01/19 09:58:21;;;;;;;10.90;8.18;;;3.20;78.80;;;2.55;64.30;95816.72;5038191;28;20446;-85
2022/01/19 10:00:51;;;;;;;10.48;7.20;;;3.30;78.90;;;2.57;64.29;95812.25;5052439;28;20259;-85
2022/01/19 10:03:19;;;;;;;10.65;7.30;;;3.30;78.90;;;2.66;64.25;95808.94;5026671;28;20218;-85
2022/01/19 10:06:16;;;;;;;9.45;6.97;;;3.40;78.90;;;2.67;64.24;95800.25;5031621;28;20203;-85
2022/01/19 10:08:55;;;;;;;11.02;7.47;;;3.50;78.80;;;2.77;64.31;95789.97;5043908;28;20252;-85
2022/01/19 10:17:06;;;;;;;9.02;7.13;;;3.60;78.90;;;2.84;64.31;95785.09;5035788;28;20192;-84
2022/01/19 10:19:36;;;;;;;9.90;6.78;;;3.60;78.80;;;2.97;64.18;95785.78;5035589;28;20649;-85
2022/01/19 10:22:12;;;;;;;11.85;6.93;;;3.70;78.80;;;2.95;64.10;95766.94;5048177;28;20232;-87
2022/01/19 10:24:46;;;;;;;7.22;5.82;;;3.70;79.50;;;2.95;64.22;95753.97;5015072;28;20207;-85
2022/01/19 10:27:42;;;;;;;9.13;5.53;;;3.80;78.80;;;3.08;63.73;95764.19;5032292;28;20216;-85
2022/01/19 10:30:09;;;;;;;8.65;5.47;;;3.80;78.50;;;3.16;64.11;95764.38;5015612;28;20320;-85
2022/01/19 10:33:00;;;;;;;7.78;5.40;;;3.80;78.60;;;3.01;63.87;95724.97;5015360;28;20514;-86
2022/01/19 10:35:38;;;;;;;8.68;6.07;;;3.90;78.70;;;3.25;64.13;95749.84;5017952;28;20196;-86
2022/01/19 10:38:27;;;;;;;7.78;6.32;;;4.00;78.60;;;3.27;64.00;95739.34;5052151;28;20250;-86
2022/01/19 10:41:09;;;;;;;7.75;5.82;;;4.00;78.60;;;3.31;63.88;95726.00;5010505;28;20217;-86
2022/01/19 10:43:44;;;;;;;8.75;6.00;;;4.10;78.50;;;3.28;64.00;95717.66;5015184;28;20275;-86
2022/01/19 10:46:34;;;;;;;8.73;5.97;;;4.10;78.50;;;3.33;63.98;95718.94;5019312;28;20189;-86
2022/01/19 10:49:08;;;;;;;9.25;6.03;;;4.10;78.40;;;3.38;63.77;95715.94;5035440;28;20269;-85
2022/01/19 10:51:44;;;;;;;9.05;6.53;;;4.20;78.50;;;3.39;63.98;95699.44;5051709;28;20187;-86
2022/01/19 10:54:19;;;;;;;9.63;6.25;;;4.20;78.50;;;3.51;63.70;95705.38;5035673;28;20203;-86
2022/01/19 10:56:50;;;;;;;12.30;6.63;;;4.20;78.50;;;3.64;63.74;95703.41;5033984;28;20191;-85
2022/01/19 10:59:18;;;;;;;8.48;6.45;;;4.30;78.50;;;3.63;63.89;95693.16;5032656;28;20200;-85
2022/01/19 11:01:51;;;;;;;7.72;6.28;;;4.30;78.50;;;3.73;63.78;95696.59;5051575;28;20242;-85
2022/01/19 11:04:24;;;;;;;8.80;6.78;;;4.40;78.40;;;3.79;63.69;95701.28;5029635;28;20204;-86
2022/01/19 11:07:01;;;;;;;8.30;6.60;;;4.40;78.40;;;3.69;63.78;95670.09;5035373;28;20212;-86
2022/01/19 11:09:31;;;;;;;9.85;6.88;;;4.50;78.40;;;3.85;63.60;95692.97;5035270;28;20287;-86
2022/01/19 11:12:05;;;;;;;9.10;7.13;;;4.50;78.40;;;3.92;63.61;95682.91;5035113;28;20207;-85
2022/01/19 11:14:35;;;;;;;9.95;6.60;;;4.60;78.40;;;3.88;63.63;95665.94;5018980;28;20208;-86
2022/01/19 11:17:23;;;;;;;10.00;7.07;;;4.60;78.50;;;4.02;63.47;95675.13;5014975;28;20315;-86
2022/01/19 11:19:50;;;;;;;8.73;6.72;;;4.70;78.50;;;4.07;63.54;95661.78;5048588;28;20249;-85
2022/01/19 11:22:34;;;;;;;9.57;7.28;;;4.70;78.40;;;3.99;63.48;95639.06;5051404;28;20233;-86
2022/01/19 11:25:10;;;;;;;11.48;7.80;;;4.80;78.30;;;4.06;63.40;95636.75;5057952;28;20275;-86
2022/01/19 11:27:55;;;;;;;10.10;7.15;;;4.80;78.30;;;4.16;63.63;95635.81;5056645;28;20250;-86
2022/01/19 11:30:34;;;;;;;11.93;8.10;;;4.80;78.40;;;4.25;63.48;95638.59;5039147;28;20210;-86
2022/01/19 11:33:25;;;;;;;11.80;8.30;;;5.00;78.30;;;4.18;63.45;95599.34;5064706;28;20224;-86
2022/01/19 11:35:57;;;;;;;9.48;7.38;;;4.90;78.20;;;4.38;63.88;95604.53;5045734;28;20643;-86
2022/01/19 11:38:39;;;;;;;12.82;8.18;;;5.00;78.60;;;4.53;63.71;95607.53;5036064;28;20725;-86
2022/01/19 11:41:10;;;;;;;10.93;8.10;;;5.10;78.70;;;4.64;63.69;95610.84;5054801;28;20689;-86
2022/01/19 11:43:48;;;;;;;8.20;7.32;;;5.20;79.70;;;4.58;63.79;95574.19;5054439;28;20294;-85
2022/01/19 11:46:39;;;;;;;9.93;7.10;;;5.30;79.00;;;4.87;64.01;95591.50;5054818;28;20265;-85
2022/01/19 11:49:10;;;;;;;10.20;7.28;;;5.40;78.70;;;5.05;63.80;95589.84;5055146;28;20258;-86
2022/01/19 11:51:44;;;;;;;12.27;8.00;;;5.60;79.20;;;5.13;64.03;95568.34;5054670;28;20261;-86
2022/01/19 11:54:35;;;;;;;10.63;8.48;;;5.70;79.20;;;5.27;63.34;95561.84;5034434;28;20248;-86
2022/01/19 11:57:09;;;;;;;11.43;8.18;;;5.90;78.60;;;5.39;63.14;95560.72;5037655;28;20220;-85
2022/01/19 11:59:46;;;;;;;9.02;7.20;;;6.00;78.40;;;5.61;63.39;95569.09;5054919;28;20654;-86
2022/01/19 12:02:23;;;;;;;10.73;7.18;;;6.10;78.30;;;5.79;63.54;95563.16;5054360;28;20235;-86
2022/01/19 12:05:10;;;;;;;9.82;7.13;;;6.20;78.50;;;5.97;63.48;95556.19;5037426;28;20287;-86
2022/01/19 12:07:49;;;;;;;10.55;7.00;;;6.40;79.30;;;6.04;63.68;95533.81;5033932;28;20239;-84
2022/01/19 12:10:30;;;;;;;9.30;6.65;;;6.50;79.00;;;6.38;63.48;95545.34;5017603;28;20211;-85
2022/01/19 12:16:19;;;;;;;9.05;6.72;;;6.90;78.20;;;6.75;63.21;95538.28;5054311;28;20195;-85